createdAt,value
2023-01-27T00:01:00.839Z,68.38
2023-01-27T00:03:28.253Z,73.00
2023-01-27T00:05:55.932Z,121.28
2023-01-27T00:08:23.160Z,118.43
2023-01-27T00:11:13.341Z,86.63
2023-01-27T00:13:40.951Z,79.85
2023-01-27T00:16:08.507Z,70.22
2023-01-27T00:18:35.885Z,70.55
2023-01-27T00:21:21.911Z,82.32
2023-01-27T00:24:07.794Z,79.25
2023-01-27T00:26:35.368Z,81.80
2023-01-27T00:29:02.681Z,77.40
2023-01-27T00:31:48.547Z,76.38
2023-01-27T00:34:16.011Z,87.07
2023-01-27T00:36:43.519Z,89.05
2023-01-27T00:39:12.643Z,116.07
2023-01-27T00:41:40.729Z,93.55
2023-01-27T00:44:13.049Z,96.57
2023-01-27T00:46:42.464Z,90.65
2023-01-27T00:49:10.836Z,83.55
2023-01-27T00:51:38.535Z,98.55
2023-01-27T00:54:06.278Z,133.93
2023-01-27T00:56:33.890Z,99.82
2023-01-27T00:59:01.487Z,97.53
2023-01-27T01:01:29.341Z,100.63
2023-01-27T01:03:58.848Z,111.35
2023-01-27T01:06:27.133Z,101.30
2023-01-27T01:08:56.745Z,119.75
2023-01-27T01:11:24.980Z,105.70
2023-01-27T01:13:54.841Z,100.85
2023-01-27T01:16:25.296Z,95.65
2023-01-27T01:18:53.398Z,100.47
2023-01-27T01:21:21.752Z,93.70
2023-01-27T01:23:49.021Z,96.90
2023-01-27T01:26:17.527Z,93.75
2023-01-27T01:28:45.669Z,99.90
2023-01-27T01:31:16.445Z,96.72
2023-01-27T01:33:43.762Z,110.82
2023-01-27T01:36:14.299Z,105.63
2023-01-27T01:38:41.428Z,107.10
2023-01-27T01:41:13.465Z,93.53
2023-01-27T01:43:40.692Z,100.93
2023-01-27T01:46:10.804Z,97.65
2023-01-27T01:48:52.134Z,100.88
2023-01-27T01:51:28.741Z,94.30
2023-01-27T01:54:00.403Z,102.28
2023-01-27T01:56:54.109Z,98.07
2023-01-27T01:59:27.283Z,103.82
2023-01-27T02:01:57.906Z,96.38
2023-01-27T02:04:31.338Z,97.30
2023-01-27T02:07:08.662Z,96.35
2023-01-27T02:09:38.467Z,95.78
2023-01-27T02:12:06.496Z,100.57
2023-01-27T02:14:34.144Z,99.15
2023-01-27T02:17:03.377Z,100.90
2023-01-27T02:20:11.579Z,97.43
2023-01-27T02:22:52.523Z,106.45
2023-01-27T02:25:23.491Z,99.30
2023-01-27T02:27:50.916Z,109.07
2023-01-27T02:30:18.958Z,105.75
2023-01-27T02:32:46.539Z,98.35
2023-01-27T02:35:20.406Z,94.50
2023-01-27T02:37:50.011Z,106.70
2023-01-27T02:40:18.697Z,96.95
2023-01-27T02:42:46.113Z,101.68
2023-01-27T02:45:13.666Z,104.72
2023-01-27T02:47:41.388Z,102.55
2023-01-27T02:50:09.395Z,99.50
2023-01-27T02:52:36.846Z,101.22
2023-01-27T02:55:04.467Z,108.70
2023-01-27T02:57:31.872Z,112.93
2023-01-27T03:00:19.107Z,105.10
2023-01-27T03:02:46.664Z,104.53
2023-01-27T03:05:15.816Z,108.47
2023-01-27T03:07:43.541Z,115.68
2023-01-27T03:10:11.058Z,108.20
2023-01-27T03:12:38.605Z,107.88
2023-01-27T03:15:24.994Z,115.70
2023-01-27T03:18:15.944Z,105.07
2023-01-27T03:20:47.895Z,111.47
2023-01-27T03:23:17.833Z,111.82
2023-01-27T03:25:49.615Z,108.28
2023-01-27T03:28:17.177Z,106.70
2023-01-27T03:30:52.135Z,105.18
2023-01-27T03:33:24.659Z,107.30
2023-01-27T03:36:10.383Z,109.78
2023-01-27T03:39:02.658Z,112.22
2023-01-27T03:41:48.598Z,121.93
2023-01-27T03:44:35.106Z,114.55
2023-01-27T03:47:02.476Z,109.30
2023-01-27T03:49:29.934Z,122.70
2023-01-27T03:51:57.362Z,113.68
2023-01-27T03:54:24.846Z,113.38
2023-01-27T03:56:52.012Z,116.70
2023-01-27T03:59:19.605Z,122.30
2023-01-27T04:01:47.079Z,118.30
2023-01-27T04:04:33.105Z,121.15
2023-01-27T04:07:03.152Z,120.60
2023-01-27T04:09:34.089Z,114.15
2023-01-27T04:12:04.560Z,122.63
2023-01-27T04:14:37.830Z,129.27
2023-01-27T04:17:16.290Z,123.15
2023-01-27T04:19:46.398Z,115.68
2023-01-27T04:22:15.625Z,116.18
2023-01-27T04:24:43.491Z,110.82
2023-01-27T04:27:15.695Z,119.85
2023-01-27T04:29:43.247Z,122.82
2023-01-27T04:32:12.772Z,126.95
2023-01-27T04:34:41.103Z,121.38
2023-01-27T04:37:09.626Z,124.15
2023-01-27T04:39:37.428Z,122.45
2023-01-27T04:42:05.049Z,119.60
2023-01-27T04:44:32.648Z,114.95
2023-01-27T04:46:59.796Z,119.45
2023-01-27T04:49:27.474Z,130.80
2023-01-27T04:51:55.538Z,121.72
2023-01-27T04:54:23.116Z,129.32
2023-01-27T04:57:01.451Z,117.43
2023-01-27T04:59:29.446Z,126.75
2023-01-27T05:01:56.848Z,119.85
2023-01-27T05:04:26.462Z,126.60
2023-01-27T05:06:56.261Z,127.78
2023-01-27T05:09:23.845Z,123.55
2023-01-27T05:11:50.976Z,135.70
2023-01-27T05:14:18.599Z,132.80
2023-01-27T05:16:45.826Z,130.10
2023-01-27T05:19:13.364Z,134.43
2023-01-27T05:21:40.501Z,139.93
2023-01-27T05:24:08.247Z,147.10
2023-01-27T05:26:35.469Z,157.80
2023-01-27T05:29:03.028Z,151.13
2023-01-27T05:31:34.295Z,154.77
2023-01-27T05:34:02.619Z,139.18
2023-01-27T05:36:30.548Z,131.23
2023-01-27T05:38:59.249Z,143.60
2023-01-27T05:41:28.631Z,130.15
2023-01-27T05:43:56.644Z,137.85
2023-01-27T05:46:26.463Z,135.68
2023-01-27T05:48:55.992Z,144.48
2023-01-27T05:51:25.250Z,154.07
2023-01-27T05:53:53.959Z,144.02
2023-01-27T05:56:21.169Z,160.52
2023-01-27T05:58:48.915Z,150.90
2023-01-27T06:01:19.617Z,131.30
2023-01-27T06:03:47.669Z,128.77
2023-01-27T06:06:16.663Z,141.23
2023-01-27T06:08:44.288Z,133.38
2023-01-27T06:11:11.552Z,159.23
2023-01-27T06:13:39.553Z,155.10
2023-01-27T06:16:10.453Z,144.05
2023-01-27T06:18:38.700Z,141.35
2023-01-27T06:21:08.695Z,147.63
2023-01-27T06:23:36.178Z,136.88
2023-01-27T06:26:06.894Z,143.35
2023-01-27T06:28:34.403Z,155.38
2023-01-27T06:31:09.458Z,149.80
2023-01-27T06:33:37.605Z,137.45
2023-01-27T06:36:10.933Z,155.23
2023-01-27T06:38:38.589Z,160.82
2023-01-27T06:41:05.909Z,145.98
2023-01-27T06:43:33.463Z,160.57
2023-01-27T06:46:01.367Z,165.82
2023-01-27T06:48:30.393Z,157.00
2023-01-27T06:50:57.923Z,179.98
2023-01-27T06:53:26.253Z,162.52
2023-01-27T06:55:58.141Z,173.90
2023-01-27T06:58:26.038Z,149.65
2023-01-27T07:00:54.480Z,162.85
2023-01-27T07:03:22.807Z,175.32
2023-01-27T07:05:50.341Z,165.68
2023-01-27T07:08:17.839Z,160.00
2023-01-27T07:10:45.123Z,157.18
2023-01-27T07:13:14.207Z,155.48
2023-01-27T07:15:41.888Z,149.23
2023-01-27T07:18:11.389Z,155.43
2023-01-27T07:20:38.772Z,153.15
2023-01-27T07:23:06.499Z,151.38
2023-01-27T07:25:34.895Z,139.98
2023-01-27T07:28:03.516Z,164.35
2023-01-27T07:30:31.012Z,157.30
2023-01-27T07:33:10.061Z,145.57
2023-01-27T07:35:38.395Z,143.73
2023-01-27T07:38:06.899Z,143.52
2023-01-27T07:40:35.433Z,143.63
2023-01-27T07:43:03.980Z,134.50
2023-01-27T07:45:33.960Z,155.10
2023-01-27T07:48:06.564Z,144.48
2023-01-27T07:53:03.342Z,149.48
2023-01-27T07:55:32.527Z,146.10
2023-01-27T07:58:00.105Z,139.10
2023-01-27T08:00:29.008Z,134.00
2023-01-27T08:02:57.788Z,148.02
2023-01-27T08:05:26.131Z,123.88
2023-01-27T08:07:58.303Z,151.23
2023-01-27T08:10:25.916Z,142.63
2023-01-27T08:12:53.695Z,128.73
2023-01-27T08:15:20.988Z,135.77
2023-01-27T08:17:58.391Z,122.28
2023-01-27T08:20:27.302Z,129.23
2023-01-27T08:22:54.661Z,119.82
2023-01-27T08:25:22.971Z,129.02
2023-01-27T08:27:55.203Z,118.70
2023-01-27T08:30:23.189Z,109.25
2023-01-27T08:32:50.532Z,117.75
2023-01-27T08:35:18.096Z,121.35
2023-01-27T08:37:49.428Z,120.60
2023-01-27T08:40:17.888Z,118.88
2023-01-27T08:42:45.094Z,122.38
2023-01-27T08:45:12.736Z,132.65
2023-01-27T08:47:39.859Z,111.28
2023-01-27T08:50:08.580Z,118.18
2023-01-27T08:52:35.959Z,113.63
2023-01-27T08:55:03.576Z,114.13
2023-01-27T08:57:32.568Z,110.28
2023-01-27T09:00:00.215Z,105.90
2023-01-27T09:02:27.414Z,82.88
2023-01-27T09:04:54.863Z,101.15
2023-01-27T09:07:22.101Z,109.28
2023-01-27T09:09:51.268Z,95.05
2023-01-27T09:12:23.246Z,86.38
2023-01-27T09:14:50.775Z,77.35
2023-01-27T09:17:19.761Z,83.40
2023-01-27T09:19:47.557Z,98.03
2023-01-27T09:22:14.747Z,90.35
2023-01-27T09:24:42.210Z,73.72
2023-01-27T09:27:09.353Z,84.82
2023-01-27T09:29:36.912Z,71.50
2023-01-27T09:32:04.395Z,78.70
2023-01-27T09:34:31.971Z,89.63
2023-01-27T09:37:05.586Z,82.63
2023-01-27T09:39:37.602Z,81.38
2023-01-27T09:42:27.780Z,80.25
2023-01-27T09:45:14.014Z,80.88
2023-01-27T09:47:53.386Z,83.25
2023-01-27T09:50:44.712Z,90.68
2023-01-27T09:53:23.651Z,76.43
2023-01-27T09:56:33.006Z,89.75
2023-01-27T09:59:25.428Z,75.57
2023-01-27T10:02:17.169Z,76.32
2023-01-27T10:04:59.583Z,69.95
2023-01-27T10:10:15.285Z,68.20
2023-01-27T10:13:07.908Z,67.93
2023-01-27T10:15:59.409Z,72.80
2023-01-27T10:18:41.604Z,69.57
2023-01-27T10:21:41.328Z,58.08
2023-01-27T10:24:08.791Z,58.15
2023-01-27T10:26:44.211Z,54.13
2023-01-27T10:29:39.146Z,58.60
2023-01-27T10:32:28.353Z,55.38
2023-01-27T10:35:19.288Z,57.40
2023-01-27T10:38:10.630Z,77.57
2023-01-27T10:41:07.849Z,77.25
2023-01-27T10:43:44.063Z,107.28
2023-01-27T10:46:11.587Z,66.68
2023-01-27T10:48:51.439Z,72.18
2023-01-27T10:51:32.684Z,73.70
2023-01-27T10:54:08.505Z,70.03
2023-01-27T10:56:43.495Z,70.55
2023-01-27T10:59:37.815Z,69.88
2023-01-27T11:02:17.195Z,69.93
2023-01-27T11:04:49.978Z,59.80
2023-01-27T11:07:21.529Z,80.97
2023-01-27T11:10:02.180Z,173.63
2023-01-27T11:12:38.937Z,65.18
2023-01-27T11:15:24.417Z,93.47
2023-01-27T11:17:55.051Z,59.72
2023-01-27T11:20:35.373Z,65.22
2023-01-27T11:23:18.914Z,61.40
2023-01-27T11:26:23.440Z,60.00
2023-01-27T11:29:15.412Z,56.33
2023-01-27T11:32:04.519Z,58.60
2023-01-27T11:34:41.364Z,59.83
2023-01-27T11:37:21.825Z,55.40
2023-01-27T11:39:49.479Z,70.65
2023-01-27T11:42:17.155Z,62.35
2023-01-27T11:44:46.121Z,69.80
2023-01-27T11:47:26.514Z,51.85
2023-01-27T11:49:56.448Z,60.30
2023-01-27T11:52:28.994Z,54.70
2023-01-27T11:55:15.286Z,65.22
2023-01-27T11:57:47.006Z,65.82
2023-01-27T12:00:28.776Z,60.42
2023-01-27T12:03:01.516Z,62.95
2023-01-27T12:05:34.007Z,66.38
2023-01-27T12:08:03.789Z,73.95
2023-01-27T12:10:35.141Z,68.07
2023-01-27T12:13:15.896Z,64.25
2023-01-27T12:16:09.597Z,71.38
2023-01-27T12:18:51.129Z,68.63
2023-01-27T12:21:19.314Z,73.35
2023-01-27T12:23:53.967Z,71.90
2023-01-27T12:26:36.833Z,70.35
2023-01-27T12:31:50.072Z,84.60
2023-01-27T12:34:30.417Z,81.53
2023-01-27T12:36:59.143Z,78.32
2023-01-27T12:40:06.412Z,90.60
2023-01-27T12:42:36.904Z,92.10
2023-01-27T12:45:25.749Z,119.00
2023-01-27T12:48:12.777Z,119.10
2023-01-27T12:50:42.086Z,91.65
2023-01-27T12:53:13.526Z,90.53
2023-01-27T12:55:58.643Z,105.55
2023-01-27T12:58:37.868Z,103.90
2023-01-27T13:01:07.272Z,97.13
2023-01-27T13:03:40.976Z,95.97
2023-01-27T13:06:09.884Z,107.88
2023-01-27T13:08:40.437Z,106.60
2023-01-27T13:11:09.604Z,129.45
2023-01-27T13:13:50.520Z,123.82
2023-01-27T13:16:31.065Z,100.35
2023-01-27T13:19:01.992Z,98.53
2023-01-27T13:26:39.364Z,123.18
2023-01-27T13:29:11.591Z,106.20
2023-01-27T13:32:00.663Z,90.47
2023-01-27T13:34:58.288Z,99.50
2023-01-27T13:37:59.839Z,90.95
2023-01-27T13:40:33.929Z,94.95
2023-01-27T13:43:20.048Z,99.22
2023-01-27T13:45:58.141Z,96.53
2023-01-27T13:48:32.235Z,123.78
2023-01-27T13:51:11.745Z,106.72
2023-01-27T13:53:39.784Z,115.13
2023-01-27T13:56:19.700Z,127.15
2023-01-27T13:59:17.352Z,113.80
2023-01-27T14:02:08.053Z,130.38
2023-01-27T14:05:12.488Z,121.78
2023-01-27T14:08:08.149Z,162.95
2023-01-27T14:11:09.773Z,135.15
2023-01-27T14:13:54.933Z,128.13
2023-01-27T14:16:30.955Z,130.13
2023-01-27T14:19:24.113Z,100.25
2023-01-27T14:22:01.171Z,101.00
2023-01-27T14:24:52.817Z,100.45
2023-01-27T14:27:42.451Z,91.35
2023-01-27T14:30:31.424Z,97.55
2023-01-27T14:33:05.632Z,95.93
2023-01-27T14:36:02.167Z,97.35
2023-01-27T14:38:39.969Z,101.53
2023-01-27T14:41:21.904Z,84.68
2023-01-27T14:44:01.157Z,89.50
2023-01-27T14:46:48.053Z,82.15
2023-01-27T14:49:48.798Z,79.38
2023-01-27T14:52:34.710Z,75.70
2023-01-27T14:55:28.554Z,89.43
2023-01-27T14:57:58.749Z,90.22
2023-01-27T15:00:56.140Z,93.65
2023-01-27T15:04:02.105Z,89.82
2023-01-27T15:06:35.231Z,92.15
2023-01-27T15:09:45.304Z,101.90
2023-01-27T15:12:26.324Z,92.95
2023-01-27T15:15:00.834Z,101.28
2023-01-27T15:17:55.531Z,105.88
2023-01-27T15:20:48.453Z,95.97
2023-01-27T15:23:49.345Z,96.30
2023-01-27T15:26:21.571Z,109.90
2023-01-27T15:28:49.153Z,93.22
2023-01-27T15:31:16.986Z,100.13
2023-01-27T15:33:54.756Z,105.70
2023-01-27T15:36:28.285Z,96.47
2023-01-27T15:38:59.808Z,94.72
2023-01-27T15:41:28.199Z,102.03
2023-01-27T15:44:16.738Z,91.00
2023-01-27T15:46:49.398Z,101.82
2023-01-27T15:49:29.108Z,106.38
2023-01-27T15:52:27.211Z,118.80
2023-01-27T15:54:57.493Z,113.65
2023-01-27T15:57:28.056Z,103.68
2023-01-27T16:00:03.051Z,99.68
2023-01-27T16:02:45.007Z,96.25
2023-01-27T16:05:26.478Z,110.38
2023-01-27T16:07:59.793Z,117.27
2023-01-27T16:10:31.468Z,118.78
2023-01-27T16:13:26.331Z,113.97
2023-01-27T16:16:18.142Z,112.35
2023-01-27T16:19:05.068Z,111.85
2023-01-27T16:21:44.694Z,241.98
2023-01-27T16:24:41.364Z,134.60
2023-01-27T16:27:14.502Z,145.57
2023-01-27T16:29:58.114Z,141.85
2023-01-27T16:32:35.505Z,125.40
2023-01-27T16:35:06.848Z,142.90
2023-01-27T16:37:38.028Z,121.18
2023-01-27T16:40:19.521Z,134.10
2023-01-27T16:43:06.300Z,127.15
2023-01-27T16:46:00.958Z,121.57
2023-01-27T16:48:43.218Z,117.55
2023-01-27T16:51:18.629Z,121.97
2023-01-27T16:53:48.934Z,130.05
2023-01-27T16:56:34.662Z,150.15
2023-01-27T16:59:08.093Z,217.02
2023-01-27T17:01:43.439Z,131.27
2023-01-27T17:04:20.723Z,123.63
2023-01-27T17:06:53.600Z,128.45
2023-01-27T17:11:52.615Z,138.10
2023-01-27T17:14:30.534Z,127.03
2023-01-27T17:17:01.583Z,145.65
2023-01-27T17:19:34.097Z,139.65
2023-01-27T17:22:06.679Z,144.50
2023-01-27T17:24:37.343Z,215.13
2023-01-27T17:27:36.359Z,138.95
2023-01-27T17:30:24.698Z,190.52
2023-01-27T17:33:03.800Z,136.52
2023-01-27T17:35:35.586Z,231.00
2023-01-27T17:38:20.059Z,114.10
2023-01-27T17:40:52.703Z,122.88
2023-01-27T17:43:39.758Z,110.07
2023-01-27T17:46:23.712Z,114.32
2023-01-27T17:48:55.819Z,102.82
2023-01-27T17:51:26.776Z,93.07
2023-01-27T17:53:55.004Z,96.70
2023-01-27T17:56:29.915Z,96.72
2023-01-27T17:59:05.898Z,112.80
2023-01-27T18:01:34.284Z,110.47
2023-01-27T18:04:03.028Z,106.88
2023-01-27T18:06:30.347Z,142.07
2023-01-27T18:09:14.570Z,131.13
2023-01-27T18:11:55.167Z,112.57
2023-01-27T18:14:22.912Z,113.50
2023-01-27T18:17:01.478Z,104.47
2023-01-27T18:19:29.415Z,101.55
2023-01-27T18:22:26.045Z,99.63
2023-01-27T18:24:57.311Z,101.00
2023-01-27T18:27:36.973Z,104.18
2023-01-27T18:30:23.787Z,102.80
2023-01-27T18:32:53.517Z,103.57
2023-01-27T18:35:26.938Z,113.22
2023-01-27T18:38:00.043Z,98.53
2023-01-27T18:40:27.881Z,112.68
2023-01-27T18:42:56.251Z,113.30
2023-01-27T18:45:25.308Z,98.32
2023-01-27T18:47:52.978Z,105.75
2023-01-27T18:50:23.054Z,98.05
2023-01-27T18:52:51.578Z,110.95
2023-01-27T18:55:27.577Z,115.60
2023-01-27T18:57:59.315Z,121.40
2023-01-27T19:00:31.515Z,117.45
2023-01-27T19:03:01.385Z,106.05
2023-01-27T19:05:33.677Z,87.70
2023-01-27T19:08:01.761Z,101.40
2023-01-27T19:10:32.729Z,96.85
2023-01-27T19:13:01.847Z,127.03
2023-01-27T19:15:33.359Z,171.57
2023-01-27T19:18:14.239Z,156.57
2023-01-27T19:20:41.823Z,103.25
2023-01-27T19:23:13.910Z,113.07
2023-01-27T19:25:42.286Z,104.68
2023-01-27T19:28:22.110Z,95.55
2023-01-27T19:30:49.563Z,111.97
2023-01-27T19:33:22.226Z,84.78
2023-01-27T19:36:00.664Z,79.32
2023-01-27T19:38:29.830Z,93.07
2023-01-27T19:40:57.408Z,79.80
2023-01-27T19:43:24.687Z,80.55
2023-01-27T19:45:52.370Z,88.10
2023-01-27T19:48:22.426Z,80.55
2023-01-27T19:50:51.668Z,81.18
2023-01-27T19:53:19.964Z,81.25
2023-01-27T19:55:48.095Z,81.90
2023-01-27T19:58:24.909Z,95.15
2023-01-27T20:00:54.314Z,155.40
2023-01-27T20:03:23.512Z,77.40
2023-01-27T20:05:51.239Z,77.03
2023-01-27T20:08:20.351Z,137.20
2023-01-27T20:10:47.919Z,89.30
2023-01-27T20:13:18.180Z,95.32
2023-01-27T20:15:46.320Z,67.80
2023-01-27T20:18:15.917Z,71.00
2023-01-27T20:20:44.356Z,62.50
2023-01-27T20:23:13.693Z,71.50
2023-01-27T20:25:41.245Z,64.50
2023-01-27T20:28:10.245Z,62.63
2023-01-27T20:30:38.823Z,67.70
2023-01-27T20:33:06.168Z,64.43
2023-01-27T20:35:33.712Z,68.00
2023-01-27T20:38:02.606Z,57.63
2023-01-27T20:40:31.425Z,61.83
2023-01-27T20:43:00.861Z,62.00
2023-01-27T20:45:28.363Z,58.22
2023-01-27T20:47:56.184Z,60.83
2023-01-27T20:50:26.080Z,57.03
2023-01-27T20:52:53.635Z,59.00
2023-01-27T20:55:21.648Z,58.63
2023-01-27T20:57:49.129Z,77.63
2023-01-27T21:00:18.779Z,66.80
2023-01-27T21:02:46.049Z,75.28
2023-01-27T21:05:14.595Z,62.95
2023-01-27T21:07:42.162Z,65.47
2023-01-27T21:10:10.199Z,64.30
2023-01-27T21:12:37.405Z,57.72
2023-01-27T21:15:09.622Z,63.13
2023-01-27T21:17:37.442Z,60.90
2023-01-27T21:20:05.818Z,70.88
2023-01-27T21:22:34.538Z,61.03
2023-01-27T21:25:02.256Z,61.22
2023-01-27T21:27:29.596Z,68.85
2023-01-27T21:29:57.279Z,75.20
2023-01-27T21:32:24.474Z,64.30
2023-01-27T21:34:51.845Z,66.57
2023-01-27T21:37:19.066Z,60.33
2023-01-27T21:39:46.528Z,68.82
2023-01-27T21:42:35.264Z,65.97
2023-01-27T21:45:16.416Z,64.82
2023-01-27T21:47:44.054Z,63.40
2023-01-27T21:50:12.459Z,60.47
2023-01-27T21:52:42.993Z,83.60
2023-01-27T21:55:19.958Z,59.28
2023-01-27T21:57:50.653Z,60.72
2023-01-27T22:00:23.287Z,57.00
2023-01-27T22:03:01.039Z,61.13
2023-01-27T22:05:30.109Z,58.65
2023-01-27T22:08:02.559Z,62.67
2023-01-27T22:10:30.750Z,64.47
2023-01-27T22:13:03.878Z,62.65
2023-01-27T22:15:31.914Z,54.10
2023-01-27T22:17:59.607Z,53.72
2023-01-27T22:20:28.294Z,50.83
2023-01-27T22:22:55.715Z,63.35
2023-01-27T22:25:23.311Z,62.63
2023-01-27T22:27:54.649Z,60.92
2023-01-27T22:30:22.244Z,57.28
2023-01-27T22:32:49.940Z,64.65
2023-01-27T22:35:18.566Z,60.33
2023-01-27T22:37:46.850Z,62.92
2023-01-27T22:40:16.466Z,61.10
2023-01-27T22:42:43.653Z,63.22
2023-01-27T22:45:11.579Z,63.25
2023-01-27T22:47:38.968Z,66.63
2023-01-27T22:50:07.184Z,54.88
2023-01-27T22:52:37.644Z,65.25
2023-01-27T22:55:06.979Z,61.38
2023-01-27T22:57:34.264Z,57.83
2023-01-27T23:00:02.303Z,61.60
2023-01-27T23:02:29.975Z,53.75
2023-01-27T23:04:58.228Z,59.30
2023-01-27T23:07:26.137Z,63.95
2023-01-27T23:09:53.669Z,68.53
2023-01-27T23:12:20.896Z,55.42
2023-01-27T23:14:48.297Z,60.90
2023-01-27T23:17:15.589Z,65.57
2023-01-27T23:19:43.085Z,59.15
2023-01-27T23:22:10.446Z,61.83
2023-01-27T23:24:37.896Z,66.70
2023-01-27T23:27:05.096Z,62.25
2023-01-27T23:29:32.605Z,57.40
2023-01-27T23:32:00.085Z,70.60
2023-01-27T23:34:27.777Z,53.42
2023-01-27T23:36:55.107Z,61.53
2023-01-27T23:39:22.814Z,63.15
2023-01-27T23:41:49.997Z,63.45
2023-01-27T23:44:17.600Z,66.93
2023-01-27T23:46:44.916Z,65.28
2023-01-27T23:49:12.841Z,66.93
2023-01-27T23:51:40.363Z,58.63
2023-01-27T23:54:07.842Z,58.40
2023-01-27T23:56:35.034Z,59.15
2023-01-27T23:59:02.851Z,59.97
